OCN10C LIRF-EDDF
Flight info
| Callsign | OCN10C |
|---|---|
| Flight time | 1h 22m |
| Altitude | 38000 |
| Route | SOVAN DCT AMTEL DCT BORMI DCT OZE DCT NAXAV DCT UNIMI L12 MOGTI Q163 ETASA T163 SPESA SPESA5B |
| Aircraft | A320/M-SDE3FGHIRWY/LB1 |
Departure
| Time | 2026-05-06 14:42 |
|---|---|
| Airport | Rome–Fiumicino Leonardo da Vinci International Airport (LIRF) |
Arrival
| Time | 2026-05-06 16:04 |
|---|---|
| Airport | Frankfurt Main Airport (EDDF) |
| Time | Latitude | Longitude | Altitude | Speed | Heading |
|---|---|---|---|---|---|
| 2026-05-06 14:26 | 41.79894 | 12.25204 | 13 ft | 0 kts | 115° |
| 2026-05-06 14:33 | 41.79895 | 12.25203 | 13 ft | 0 kts | 115° |
| 2026-05-06 14:33 | 41.79900 | 12.25188 | 13 ft | 2 kts | 114° |
| 2026-05-06 14:33 | 41.79906 | 12.25169 | 12 ft | 2 kts | 115° |
| 2026-05-06 14:33 | 41.79913 | 12.25151 | 11 ft | 2 kts | 115° |
| 2026-05-06 14:34 | 41.79918 | 12.25136 | 10 ft | 0 kts | 115° |
| 2026-05-06 14:34 | 41.79922 | 12.25121 | 10 ft | 2 kts | 86° |
| 2026-05-06 14:34 | 41.79918 | 12.25101 | 10 ft | 2 kts | 56° |
| 2026-05-06 14:34 | 41.79910 | 12.25089 | 11 ft | 0 kts | 28° |
| 2026-05-06 14:35 | 41.79903 | 12.25086 | 11 ft | 1 kts | 24° |
| 2026-05-06 14:35 | 41.79902 | 12.25085 | 11 ft | 0 kts | 24° |
| 2026-05-06 14:36 | 41.79903 | 12.25085 | 11 ft | 1 kts | 24° |
| 2026-05-06 14:36 | 41.79935 | 12.25105 | 10 ft | 8 kts | 25° |
| 2026-05-06 14:36 | 41.80014 | 12.25155 | 7 ft | 15 kts | 21° |
| 2026-05-06 14:37 | 41.80093 | 12.25090 | 7 ft | 16 kts | 285° |
| 2026-05-06 14:37 | 41.80108 | 12.24927 | 8 ft | 18 kts | 266° |
| 2026-05-06 14:37 | 41.80072 | 12.24752 | 7 ft | 20 kts | 249° |
| 2026-05-06 14:37 | 41.80023 | 12.24573 | 10 ft | 20 kts | 249° |
| 2026-05-06 14:38 | 41.79973 | 12.24399 | 10 ft | 20 kts | 249° |
| 2026-05-06 14:38 | 41.79926 | 12.24219 | 9 ft | 20 kts | 250° |
| 2026-05-06 14:38 | 41.79912 | 12.24031 | 10 ft | 20 kts | 254° |
| 2026-05-06 14:38 | 41.79863 | 12.23859 | 12 ft | 19 kts | 249° |
| 2026-05-06 14:39 | 41.79843 | 12.23687 | 10 ft | 19 kts | 312° |
| 2026-05-06 14:39 | 41.79972 | 12.23624 | 9 ft | 20 kts | 343° |
| 2026-05-06 14:39 | 41.80109 | 12.23568 | 9 ft | 20 kts | 342° |
| 2026-05-06 14:39 | 41.80248 | 12.23510 | 11 ft | 21 kts | 343° |
| 2026-05-06 14:40 | 41.80396 | 12.23447 | 13 ft | 23 kts | 342° |
| 2026-05-06 14:40 | 41.80561 | 12.23378 | 15 ft | 25 kts | 343° |
| 2026-05-06 14:40 | 41.80729 | 12.23308 | 17 ft | 24 kts | 342° |
| 2026-05-06 14:40 | 41.80834 | 12.23201 | 18 ft | 19 kts | 260° |
| 2026-05-06 14:41 | 41.80794 | 12.23029 | 16 ft | 17 kts | 254° |
| 2026-05-06 14:41 | 41.80755 | 12.22969 | 16 ft | 7 kts | 168° |
| 2026-05-06 14:41 | 41.80747 | 12.22973 | 16 ft | 4 kts | 161° |
| 2026-05-06 14:41 | 41.80454 | 12.23097 | 17 ft | 83 kts | 162° |
| 2026-05-06 14:42 | 41.79688 | 12.23417 | 15 ft | 148 kts | 163° |
| 2026-05-06 14:42 | 41.78668 | 12.23827 | 579 ft | 155 kts | 163° |
| 2026-05-06 14:42 | 41.77651 | 12.24246 | 1360 ft | 156 kts | 164° |
| 2026-05-06 14:42 | 41.76615 | 12.24592 | 2068 ft | 158 kts | 179° |
| 2026-05-06 14:43 | 41.75563 | 12.24072 | 2469 ft | 175 kts | 216° |
| 2026-05-06 14:43 | 41.74595 | 12.22975 | 2906 ft | 191 kts | 217° |
| 2026-05-06 14:43 | 41.73497 | 12.21796 | 3262 ft | 215 kts | 217° |
| 2026-05-06 14:43 | 41.72277 | 12.20514 | 3764 ft | 233 kts | 217° |
| 2026-05-06 14:44 | 41.70958 | 12.19133 | 4288 ft | 251 kts | 217° |
| 2026-05-06 14:44 | 41.69679 | 12.17506 | 4975 ft | 262 kts | 236° |
| 2026-05-06 14:44 | 41.69089 | 12.15222 | 5829 ft | 268 kts | 264° |
| 2026-05-06 14:45 | 41.70541 | 12.10744 | 7570 ft | 285 kts | 320° |
| 2026-05-06 14:45 | 41.72353 | 12.09682 | 8424 ft | 293 kts | 347° |
| 2026-05-06 14:45 | 41.74374 | 12.09312 | 9277 ft | 297 kts | 350° |
| 2026-05-06 14:45 | 41.76426 | 12.08940 | 10108 ft | 302 kts | 349° |
| 2026-05-06 14:46 | 41.78527 | 12.08536 | 10764 ft | 312 kts | 348° |
| 2026-05-06 14:46 | 41.80719 | 12.08096 | 11361 ft | 324 kts | 349° |
| 2026-05-06 14:46 | 41.82954 | 12.07649 | 12162 ft | 328 kts | 348° |
| 2026-05-06 14:46 | 41.85210 | 12.07227 | 12974 ft | 331 kts | 351° |
| 2026-05-06 14:47 | 41.87503 | 12.06962 | 13758 ft | 334 kts | 353° |
| 2026-05-06 14:47 | 41.89822 | 12.06735 | 14491 ft | 337 kts | 353° |
| 2026-05-06 14:47 | 41.92175 | 12.06509 | 15178 ft | 342 kts | 353° |
| 2026-05-06 14:47 | 41.94559 | 12.06280 | 15826 ft | 347 kts | 353° |
| 2026-05-06 14:48 | 41.96980 | 12.06047 | 16455 ft | 352 kts | 353° |
| 2026-05-06 14:48 | 41.99435 | 12.05807 | 17087 ft | 357 kts | 353° |
| 2026-05-06 14:48 | 42.01921 | 12.05564 | 17703 ft | 361 kts | 353° |
| 2026-05-06 14:48 | 42.04400 | 12.05321 | 18296 ft | 365 kts | 353° |
| 2026-05-06 14:49 | 42.06944 | 12.05073 | 18893 ft | 369 kts | 352° |
| 2026-05-06 14:49 | 42.09514 | 12.04823 | 19500 ft | 373 kts | 352° |
| 2026-05-06 14:49 | 42.12119 | 12.04569 | 20099 ft | 376 kts | 352° |
| 2026-05-06 14:49 | 42.14733 | 12.04315 | 20682 ft | 379 kts | 352° |
| 2026-05-06 14:50 | 42.17370 | 12.04047 | 21241 ft | 382 kts | 351° |
| 2026-05-06 14:50 | 42.20016 | 12.03609 | 21797 ft | 384 kts | 347° |
| 2026-05-06 14:50 | 42.22656 | 12.03048 | 22330 ft | 386 kts | 346° |
| 2026-05-06 14:50 | 42.25314 | 12.02450 | 22844 ft | 390 kts | 345° |
| 2026-05-06 14:51 | 42.27990 | 12.01844 | 23368 ft | 393 kts | 345° |
| 2026-05-06 14:51 | 42.30689 | 12.01234 | 23881 ft | 396 kts | 345° |
| 2026-05-06 14:51 | 42.33411 | 12.00618 | 24356 ft | 400 kts | 345° |
| 2026-05-06 14:51 | 42.36163 | 11.99997 | 24804 ft | 404 kts | 345° |
| 2026-05-06 14:52 | 42.38947 | 11.99367 | 25260 ft | 408 kts | 345° |
| 2026-05-06 14:52 | 42.41750 | 11.98734 | 25737 ft | 410 kts | 344° |
| 2026-05-06 14:52 | 42.44570 | 11.98096 | 26189 ft | 414 kts | 344° |
| 2026-05-06 14:52 | 42.47413 | 11.97453 | 26618 ft | 417 kts | 344° |
| 2026-05-06 14:53 | 42.50278 | 11.96803 | 27037 ft | 420 kts | 344° |
| 2026-05-06 14:53 | 42.53165 | 11.96149 | 27460 ft | 423 kts | 344° |
| 2026-05-06 14:53 | 42.56068 | 11.95489 | 27905 ft | 425 kts | 343° |
| 2026-05-06 14:53 | 42.58984 | 11.94824 | 28343 ft | 427 kts | 343° |
| 2026-05-06 14:54 | 42.61914 | 11.94156 | 28761 ft | 429 kts | 343° |
| 2026-05-06 14:54 | 42.64861 | 11.93480 | 29145 ft | 432 kts | 343° |
| 2026-05-06 14:54 | 42.67827 | 11.92799 | 29533 ft | 434 kts | 343° |
| 2026-05-06 14:54 | 42.70804 | 11.92114 | 29947 ft | 435 kts | 343° |
| 2026-05-06 14:55 | 42.73793 | 11.91430 | 30325 ft | 437 kts | 343° |
| 2026-05-06 14:55 | 42.76789 | 11.90719 | 30703 ft | 438 kts | 341° |
| 2026-05-06 14:55 | 42.79711 | 11.89834 | 31038 ft | 437 kts | 338° |
| 2026-05-06 14:55 | 42.82623 | 11.88698 | 31369 ft | 436 kts | 334° |
| 2026-05-06 14:56 | 42.85471 | 11.87322 | 31664 ft | 435 kts | 331° |
| 2026-05-06 14:56 | 42.88248 | 11.85710 | 31968 ft | 434 kts | 327° |
| 2026-05-06 14:56 | 42.90938 | 11.83883 | 32272 ft | 433 kts | 324° |
| 2026-05-06 14:56 | 42.93592 | 11.81940 | 32548 ft | 435 kts | 323° |
| 2026-05-06 14:57 | 42.96254 | 11.79964 | 32796 ft | 438 kts | 323° |
| 2026-05-06 14:57 | 42.98930 | 11.77977 | 33087 ft | 439 kts | 324° |
| 2026-05-06 14:57 | 43.01634 | 11.75977 | 33327 ft | 442 kts | 324° |
| 2026-05-06 14:57 | 43.04341 | 11.73975 | 33580 ft | 444 kts | 324° |
| 2026-05-06 14:58 | 43.07060 | 11.71968 | 33823 ft | 446 kts | 324° |
| 2026-05-06 14:58 | 43.09786 | 11.69957 | 34134 ft | 446 kts | 324° |
| 2026-05-06 14:58 | 43.12495 | 11.67963 | 34461 ft | 445 kts | 324° |
| 2026-05-06 14:58 | 43.15230 | 11.65994 | 34752 ft | 446 kts | 326° |
| 2026-05-06 14:59 | 43.18062 | 11.64225 | 34979 ft | 450 kts | 330° |
| 2026-05-06 14:59 | 43.21000 | 11.62697 | 35225 ft | 453 kts | 334° |
| 2026-05-06 14:59 | 43.24016 | 11.61426 | 35467 ft | 456 kts | 338° |
| 2026-05-06 14:59 | 43.27110 | 11.60420 | 35687 ft | 460 kts | 342° |
| 2026-05-06 15:00 | 43.30262 | 11.59696 | 35947 ft | 462 kts | 346° |
| 2026-05-06 15:00 | 43.33446 | 11.59179 | 36197 ft | 461 kts | 347° |
| 2026-05-06 15:00 | 43.36631 | 11.58713 | 36379 ft | 462 kts | 348° |
| 2026-05-06 15:00 | 43.39822 | 11.58251 | 36531 ft | 462 kts | 348° |
| 2026-05-06 15:01 | 43.43016 | 11.57787 | 36746 ft | 463 kts | 348° |
| 2026-05-06 15:01 | 43.46210 | 11.57315 | 36953 ft | 463 kts | 348° |
| 2026-05-06 15:01 | 43.49409 | 11.56840 | 37118 ft | 464 kts | 348° |
| 2026-05-06 15:01 | 43.52611 | 11.56362 | 37304 ft | 464 kts | 348° |
| 2026-05-06 15:02 | 43.55814 | 11.55881 | 37489 ft | 464 kts | 348° |
| 2026-05-06 15:02 | 43.59023 | 11.55397 | 37638 ft | 465 kts | 348° |
| 2026-05-06 15:02 | 43.62236 | 11.54912 | 37762 ft | 466 kts | 348° |
| 2026-05-06 15:02 | 43.65457 | 11.54423 | 37875 ft | 467 kts | 348° |
| 2026-05-06 15:03 | 43.68687 | 11.53934 | 37897 ft | 468 kts | 348° |
| 2026-05-06 15:03 | 43.75153 | 11.52953 | 37906 ft | 469 kts | 348° |
| 2026-05-06 15:04 | 43.81619 | 11.51970 | 37909 ft | 468 kts | 348° |
| 2026-05-06 15:04 | 43.88081 | 11.50983 | 37907 ft | 468 kts | 348° |
| 2026-05-06 15:05 | 43.94549 | 11.49993 | 37907 ft | 469 kts | 348° |
| 2026-05-06 15:05 | 44.01023 | 11.49002 | 37903 ft | 469 kts | 348° |
| 2026-05-06 15:06 | 44.07487 | 11.48009 | 37904 ft | 469 kts | 348° |
| 2026-05-06 15:06 | 44.13929 | 11.47017 | 37892 ft | 469 kts | 348° |
| 2026-05-06 15:07 | 44.20410 | 11.46017 | 37890 ft | 470 kts | 348° |
| 2026-05-06 15:07 | 44.26890 | 11.45015 | 37882 ft | 470 kts | 348° |
| 2026-05-06 15:08 | 44.33382 | 11.44007 | 37877 ft | 470 kts | 348° |
| 2026-05-06 15:08 | 44.39869 | 11.43000 | 37874 ft | 470 kts | 348° |
| 2026-05-06 15:09 | 44.46355 | 11.41991 | 37858 ft | 470 kts | 348° |
| 2026-05-06 15:09 | 44.52829 | 11.40980 | 37845 ft | 470 kts | 348° |
| 2026-05-06 15:10 | 44.59312 | 11.39966 | 37838 ft | 470 kts | 348° |
| 2026-05-06 15:10 | 44.65810 | 11.38946 | 37832 ft | 472 kts | 348° |
| 2026-05-06 15:11 | 44.72327 | 11.37921 | 37824 ft | 472 kts | 348° |
| 2026-05-06 15:11 | 44.78850 | 11.36895 | 37817 ft | 473 kts | 348° |
| 2026-05-06 15:12 | 44.85341 | 11.35872 | 37815 ft | 473 kts | 348° |
| 2026-05-06 15:12 | 44.91901 | 11.34833 | 37809 ft | 474 kts | 347° |
| 2026-05-06 15:13 | 44.98444 | 11.33796 | 37808 ft | 474 kts | 347° |
| 2026-05-06 15:13 | 45.04970 | 11.32759 | 37796 ft | 474 kts | 347° |
| 2026-05-06 15:14 | 45.11544 | 11.31710 | 37785 ft | 475 kts | 347° |
| 2026-05-06 15:14 | 45.18100 | 11.30663 | 37814 ft | 475 kts | 347° |
| 2026-05-06 15:15 | 45.24652 | 11.29613 | 37793 ft | 475 kts | 347° |
| 2026-05-06 15:15 | 45.31221 | 11.28557 | 37777 ft | 476 kts | 347° |
| 2026-05-06 15:16 | 45.37802 | 11.27498 | 37822 ft | 476 kts | 347° |
| 2026-05-06 15:16 | 45.44329 | 11.26441 | 37803 ft | 477 kts | 347° |
| 2026-05-06 15:17 | 45.50934 | 11.25370 | 37813 ft | 477 kts | 347° |
| 2026-05-06 15:17 | 45.57504 | 11.24304 | 37800 ft | 477 kts | 347° |
| 2026-05-06 15:18 | 45.64078 | 11.23232 | 37810 ft | 476 kts | 347° |
| 2026-05-06 15:18 | 45.70669 | 11.22155 | 37837 ft | 476 kts | 347° |
| 2026-05-06 15:19 | 45.77227 | 11.21076 | 37845 ft | 477 kts | 348° |
| 2026-05-06 15:19 | 45.83818 | 11.19988 | 37820 ft | 477 kts | 348° |
| 2026-05-06 15:20 | 45.90412 | 11.18894 | 37831 ft | 477 kts | 348° |
| 2026-05-06 15:20 | 45.97013 | 11.17919 | 37826 ft | 481 kts | 352° |
| 2026-05-06 15:21 | 46.03701 | 11.17912 | 37853 ft | 486 kts | 359° |
| 2026-05-06 15:21 | 46.10428 | 11.19101 | 37863 ft | 490 kts | 7° |
| 2026-05-06 15:22 | 46.17101 | 11.21252 | 37881 ft | 490 kts | 10° |
| 2026-05-06 15:22 | 46.23727 | 11.23550 | 37877 ft | 491 kts | 9° |
| 2026-05-06 15:23 | 46.30344 | 11.25811 | 37870 ft | 490 kts | 9° |
| 2026-05-06 15:23 | 46.36957 | 11.28064 | 37861 ft | 490 kts | 9° |
| 2026-05-06 15:24 | 46.43583 | 11.30062 | 37837 ft | 486 kts | 2° |
| 2026-05-06 15:24 | 46.46926 | 11.30240 | 37840 ft | 479 kts | 351° |
| 2026-05-06 15:24 | 46.50203 | 11.29538 | 37837 ft | 471 kts | 339° |
| 2026-05-06 15:25 | 46.56202 | 11.26151 | 37832 ft | 463 kts | 329° |
| 2026-05-06 15:25 | 46.62091 | 11.22250 | 37857 ft | 464 kts | 329° |
| 2026-05-06 15:26 | 46.67925 | 11.18419 | 37879 ft | 464 kts | 329° |
| 2026-05-06 15:26 | 46.73801 | 11.14584 | 37887 ft | 465 kts | 329° |
| 2026-05-06 15:27 | 46.79716 | 11.10721 | 37881 ft | 465 kts | 330° |
| 2026-05-06 15:27 | 46.85598 | 11.06877 | 37881 ft | 464 kts | 330° |
| 2026-05-06 15:28 | 46.91433 | 11.02994 | 37878 ft | 463 kts | 329° |
| 2026-05-06 15:28 | 46.97287 | 10.99089 | 37886 ft | 464 kts | 330° |
| 2026-05-06 15:29 | 47.03170 | 10.95284 | 37906 ft | 464 kts | 330° |
| 2026-05-06 15:29 | 47.09056 | 10.91455 | 37889 ft | 464 kts | 330° |
| 2026-05-06 15:30 | 47.14960 | 10.87588 | 37867 ft | 465 kts | 330° |
| 2026-05-06 15:30 | 47.20885 | 10.83686 | 37887 ft | 465 kts | 330° |
| 2026-05-06 15:31 | 47.26734 | 10.79819 | 37872 ft | 465 kts | 330° |
| 2026-05-06 15:31 | 47.32659 | 10.75884 | 37870 ft | 466 kts | 330° |
| 2026-05-06 15:32 | 47.41508 | 10.70215 | 37861 ft | 466 kts | 333° |
| 2026-05-06 15:32 | 47.47548 | 10.66725 | 37832 ft | 466 kts | 334° |
| 2026-05-06 15:33 | 47.53547 | 10.63244 | 37827 ft | 465 kts | 334° |
| 2026-05-06 15:33 | 47.59555 | 10.59727 | 37829 ft | 465 kts | 334° |
| 2026-05-06 15:34 | 47.65571 | 10.56196 | 37820 ft | 465 kts | 334° |
| 2026-05-06 15:34 | 47.71553 | 10.52667 | 37801 ft | 466 kts | 334° |
| 2026-05-06 15:35 | 47.77581 | 10.49102 | 37814 ft | 465 kts | 334° |
| 2026-05-06 15:35 | 47.83584 | 10.45534 | 37822 ft | 465 kts | 334° |
| 2026-05-06 15:36 | 47.89547 | 10.41987 | 37828 ft | 465 kts | 334° |
| 2026-05-06 15:36 | 47.95579 | 10.38416 | 37829 ft | 466 kts | 334° |
| 2026-05-06 15:37 | 48.01572 | 10.34848 | 37825 ft | 466 kts | 333° |
| 2026-05-06 15:37 | 48.07554 | 10.31254 | 37837 ft | 466 kts | 333° |
| 2026-05-06 15:38 | 48.13601 | 10.27617 | 37819 ft | 465 kts | 333° |
| 2026-05-06 15:38 | 48.19395 | 10.23514 | 37815 ft | 462 kts | 327° |
| 2026-05-06 15:39 | 48.24793 | 10.18442 | 37812 ft | 458 kts | 320° |
| 2026-05-06 15:39 | 48.29776 | 10.12604 | 37810 ft | 456 kts | 316° |
| 2026-05-06 15:40 | 48.34689 | 10.06583 | 37815 ft | 457 kts | 316° |
| 2026-05-06 15:40 | 48.39601 | 10.00571 | 37812 ft | 457 kts | 316° |
| 2026-05-06 15:41 | 48.44530 | 9.94537 | 37800 ft | 457 kts | 316° |
| 2026-05-06 15:41 | 48.49458 | 9.88493 | 37902 ft | 458 kts | 316° |
| 2026-05-06 15:42 | 48.54388 | 9.82422 | 37830 ft | 457 kts | 316° |
| 2026-05-06 15:42 | 48.59278 | 9.76391 | 37806 ft | 458 kts | 316° |
| 2026-05-06 15:43 | 48.64146 | 9.70184 | 37796 ft | 457 kts | 315° |
| 2026-05-06 15:43 | 48.68896 | 9.63907 | 37796 ft | 456 kts | 314° |
| 2026-05-06 15:44 | 48.73680 | 9.57569 | 37802 ft | 457 kts | 314° |
| 2026-05-06 15:44 | 48.78437 | 9.51254 | 37791 ft | 458 kts | 315° |
| 2026-05-06 15:45 | 48.83246 | 9.44848 | 37786 ft | 462 kts | 315° |
| 2026-05-06 15:45 | 48.88096 | 9.38381 | 37795 ft | 469 kts | 315° |
| 2026-05-06 15:46 | 48.93391 | 9.32550 | 37646 ft | 474 kts | 326° |
| 2026-05-06 15:46 | 48.96306 | 9.30220 | 37139 ft | 475 kts | 329° |
| 2026-05-06 15:46 | 48.99284 | 9.27976 | 36359 ft | 479 kts | 329° |
| 2026-05-06 15:47 | 49.02265 | 9.25752 | 35568 ft | 483 kts | 329° |
| 2026-05-06 15:47 | 49.05261 | 9.23500 | 34810 ft | 486 kts | 328° |
| 2026-05-06 15:47 | 49.08282 | 9.21206 | 34101 ft | 487 kts | 328° |
| 2026-05-06 15:47 | 49.11274 | 9.18904 | 33458 ft | 487 kts | 329° |
| 2026-05-06 15:48 | 49.14307 | 9.16566 | 32711 ft | 490 kts | 329° |
| 2026-05-06 15:48 | 49.17367 | 9.14296 | 31828 ft | 494 kts | 335° |
| 2026-05-06 15:48 | 49.20676 | 9.13094 | 30867 ft | 499 kts | 356° |
| 2026-05-06 15:48 | 49.24174 | 9.13396 | 30146 ft | 501 kts | 6° |
| 2026-05-06 15:49 | 49.27609 | 9.13997 | 29414 ft | 499 kts | 7° |
| 2026-05-06 15:49 | 49.31030 | 9.14580 | 28299 ft | 500 kts | 6° |
| 2026-05-06 15:49 | 49.34472 | 9.15124 | 26973 ft | 503 kts | 5° |
| 2026-05-06 15:49 | 49.37925 | 9.15640 | 25608 ft | 505 kts | 5° |
| 2026-05-06 15:50 | 49.41390 | 9.16139 | 24194 ft | 506 kts | 5° |
| 2026-05-06 15:50 | 49.44875 | 9.16634 | 22876 ft | 502 kts | 5° |
| 2026-05-06 15:50 | 49.48266 | 9.17114 | 22129 ft | 474 kts | 5° |
| 2026-05-06 15:50 | 49.51503 | 9.17569 | 21174 ft | 467 kts | 5° |
| 2026-05-06 15:51 | 49.54689 | 9.18016 | 20168 ft | 464 kts | 5° |
| 2026-05-06 15:51 | 49.57864 | 9.18464 | 19343 ft | 458 kts | 5° |
| 2026-05-06 15:51 | 49.61017 | 9.18912 | 18558 ft | 452 kts | 5° |
| 2026-05-06 15:51 | 49.64116 | 9.19388 | 17788 ft | 446 kts | 7° |
| 2026-05-06 15:52 | 49.67055 | 9.20761 | 16933 ft | 443 kts | 27° |
| 2026-05-06 15:52 | 49.69453 | 9.23604 | 16046 ft | 440 kts | 47° |
| 2026-05-06 15:52 | 49.71344 | 9.27286 | 15320 ft | 434 kts | 52° |
| 2026-05-06 15:52 | 49.73375 | 9.30614 | 14609 ft | 428 kts | 36° |
| 2026-05-06 15:53 | 49.75995 | 9.32606 | 13863 ft | 420 kts | 13° |
| 2026-05-06 15:53 | 49.78815 | 9.33270 | 13350 ft | 409 kts | 5° |
| 2026-05-06 15:53 | 49.81631 | 9.33764 | 12869 ft | 399 kts | 6° |
| 2026-05-06 15:53 | 49.84323 | 9.34375 | 12309 ft | 392 kts | 6° |
| 2026-05-06 15:54 | 49.86980 | 9.34291 | 11752 ft | 381 kts | 345° |
| 2026-05-06 15:54 | 49.89334 | 9.32564 | 11212 ft | 368 kts | 319° |
| 2026-05-06 15:54 | 49.90988 | 9.29676 | 10731 ft | 356 kts | 304° |
| 2026-05-06 15:54 | 49.92425 | 9.26615 | 10313 ft | 348 kts | 305° |
| 2026-05-06 15:55 | 49.93900 | 9.23719 | 9828 ft | 340 kts | 307° |
| 2026-05-06 15:55 | 49.95401 | 9.21009 | 9178 ft | 328 kts | 309° |
| 2026-05-06 15:55 | 49.96915 | 9.18434 | 8659 ft | 319 kts | 310° |
| 2026-05-06 15:55 | 49.98402 | 9.15991 | 8012 ft | 307 kts | 311° |
| 2026-05-06 15:56 | 49.99851 | 9.13657 | 7298 ft | 297 kts | 311° |
| 2026-05-06 15:56 | 50.01257 | 9.11411 | 6591 ft | 288 kts | 312° |
| 2026-05-06 15:56 | 50.02631 | 9.09225 | 6001 ft | 276 kts | 312° |
| 2026-05-06 15:56 | 50.03930 | 9.07162 | 5608 ft | 260 kts | 312° |
| 2026-05-06 15:57 | 50.05168 | 9.05195 | 5266 ft | 255 kts | 313° |
| 2026-05-06 15:57 | 50.06412 | 9.03222 | 4931 ft | 254 kts | 313° |
| 2026-05-06 15:57 | 50.07635 | 9.01282 | 4595 ft | 252 kts | 313° |
| 2026-05-06 15:57 | 50.08860 | 8.99343 | 4280 ft | 250 kts | 313° |
| 2026-05-06 15:58 | 50.10064 | 8.97435 | 4160 ft | 240 kts | 313° |
| 2026-05-06 15:58 | 50.11181 | 8.95617 | 4067 ft | 228 kts | 306° |
| 2026-05-06 15:58 | 50.11743 | 8.93426 | 3971 ft | 216 kts | 275° |
| 2026-05-06 15:58 | 50.11627 | 8.91164 | 3987 ft | 206 kts | 258° |
| 2026-05-06 15:59 | 50.11259 | 8.89100 | 4002 ft | 193 kts | 254° |
| 2026-05-06 15:59 | 50.10847 | 8.87123 | 4020 ft | 188 kts | 252° |
| 2026-05-06 15:59 | 50.10429 | 8.85285 | 3959 ft | 177 kts | 252° |
| 2026-05-06 15:59 | 50.10005 | 8.83497 | 3704 ft | 174 kts | 251° |
| 2026-05-06 16:00 | 50.09586 | 8.81767 | 3457 ft | 171 kts | 251° |
| 2026-05-06 16:00 | 50.09164 | 8.80040 | 3218 ft | 171 kts | 252° |
| 2026-05-06 16:00 | 50.08739 | 8.78301 | 2978 ft | 169 kts | 252° |
| 2026-05-06 16:00 | 50.08328 | 8.76621 | 2749 ft | 166 kts | 252° |
| 2026-05-06 16:01 | 50.07926 | 8.74971 | 2526 ft | 161 kts | 253° |
| 2026-05-06 16:01 | 50.07535 | 8.73357 | 2315 ft | 157 kts | 253° |
| 2026-05-06 16:01 | 50.07157 | 8.71797 | 2112 ft | 152 kts | 253° |
| 2026-05-06 16:01 | 50.06792 | 8.70286 | 1923 ft | 146 kts | 253° |
| 2026-05-06 16:02 | 50.06444 | 8.68844 | 1733 ft | 140 kts | 254° |
| 2026-05-06 16:02 | 50.06112 | 8.67460 | 1551 ft | 136 kts | 253° |
| 2026-05-06 16:02 | 50.05787 | 8.66108 | 1396 ft | 127 kts | 253° |
| 2026-05-06 16:02 | 50.05487 | 8.64859 | 1224 ft | 124 kts | 253° |
| 2026-05-06 16:03 | 50.05177 | 8.63593 | 1036 ft | 123 kts | 253° |
| 2026-05-06 16:03 | 50.04882 | 8.62358 | 878 ft | 123 kts | 253° |
| 2026-05-06 16:03 | 50.04588 | 8.61111 | 735 ft | 123 kts | 253° |
| 2026-05-06 16:03 | 50.04290 | 8.59862 | 570 ft | 123 kts | 253° |
| 2026-05-06 16:04 | 50.03994 | 8.58609 | 389 ft | 122 kts | 252° |
| 2026-05-06 16:04 | 50.03736 | 8.57523 | 351 ft | 84 kts | 250° |
| 2026-05-06 16:04 | 50.03594 | 8.56912 | 342 ft | 42 kts | 252° |
| 2026-05-06 16:04 | 50.03493 | 8.56501 | 340 ft | 39 kts | 250° |
| 2026-05-06 16:05 | 50.03429 | 8.56162 | 339 ft | 22 kts | 273° |
| 2026-05-06 16:05 | 50.03452 | 8.55922 | 337 ft | 17 kts | 277° |
| 2026-05-06 16:05 | 50.03471 | 8.55738 | 337 ft | 18 kts | 279° |
| 2026-05-06 16:05 | 50.03492 | 8.55524 | 337 ft | 21 kts | 271° |
| 2026-05-06 16:06 | 50.03447 | 8.55277 | 336 ft | 26 kts | 250° |
| 2026-05-06 16:06 | 50.03375 | 8.54978 | 335 ft | 31 kts | 250° |
| 2026-05-06 16:06 | 50.03298 | 8.54656 | 333 ft | 31 kts | 250° |
| 2026-05-06 16:06 | 50.03313 | 8.54480 | 330 ft | 16 kts | 336° |
| 2026-05-06 16:07 | 50.03388 | 8.54437 | 331 ft | 1 kts | 339° |
| 2026-05-06 16:09 | 50.03389 | 8.54437 | 331 ft | 0 kts | 339° |
| 2026-05-06 16:09 | 50.03406 | 8.54426 | 332 ft | 5 kts | 339° |
| 2026-05-06 16:10 | 50.03485 | 8.54380 | 333 ft | 19 kts | 339° |
| 2026-05-06 16:10 | 50.03602 | 8.54311 | 336 ft | 11 kts | 342° |
| 2026-05-06 16:10 | 50.03660 | 8.54335 | 337 ft | 9 kts | 53° |
| 2026-05-06 16:10 | 50.03688 | 8.54433 | 337 ft | 10 kts | 70° |
| 2026-05-06 16:11 | 50.03714 | 8.54545 | 338 ft | 11 kts | 70° |
| 2026-05-06 16:11 | 50.03743 | 8.54665 | 338 ft | 12 kts | 69° |
| 2026-05-06 16:11 | 50.03775 | 8.54802 | 342 ft | 15 kts | 71° |
| 2026-05-06 16:11 | 50.03817 | 8.54983 | 343 ft | 20 kts | 70° |
| 2026-05-06 16:12 | 50.03859 | 8.55151 | 347 ft | 16 kts | 71° |
| 2026-05-06 16:12 | 50.03902 | 8.55335 | 348 ft | 18 kts | 70° |
| 2026-05-06 16:12 | 50.03968 | 8.55461 | 349 ft | 14 kts | 359° |
| 2026-05-06 16:12 | 50.04054 | 8.55421 | 352 ft | 9 kts | 332° |
| 2026-05-06 16:13 | 50.04073 | 8.55406 | 353 ft | 0 kts | 332° |
| 2026-05-06 16:13 | 50.04070 | 8.55408 | 353 ft | 0 kts | 332° |
| 2026-05-06 16:13 | 50.04073 | 8.55406 | 353 ft | 1 kts | 333° |
| 2026-05-06 16:14 | 50.04098 | 8.55400 | 354 ft | 6 kts | 18° |
| 2026-05-06 16:14 | 50.04134 | 8.55497 | 355 ft | 15 kts | 71° |
| 2026-05-06 16:14 | 50.04171 | 8.55657 | 354 ft | 16 kts | 70° |
| 2026-05-06 16:14 | 50.04129 | 8.55734 | 352 ft | 9 kts | 161° |
| 2026-05-06 16:15 | 50.04092 | 8.55754 | 350 ft | 0 kts | 159° |